createdAt,value
2024-01-15T00:01:18.943Z,62.15
2024-01-15T00:03:49.628Z,61.87
2024-01-15T00:06:20.382Z,61.78
2024-01-15T00:08:50.900Z,61.38
2024-01-15T00:11:21.561Z,61.25
2024-01-15T00:13:52.014Z,61.14
2024-01-15T00:16:22.653Z,61.01
2024-01-15T00:18:53.266Z,61.01
2024-01-15T00:21:24.559Z,60.55
2024-01-15T00:23:55.045Z,60.39
2024-01-15T00:26:25.474Z,60.18
2024-01-15T00:28:56.018Z,60.10
2024-01-15T00:31:26.518Z,59.90
2024-01-15T00:33:57.122Z,59.94
2024-01-15T00:36:28.144Z,59.80
2024-01-15T00:38:58.664Z,59.78
2024-01-15T00:41:29.947Z,59.36
2024-01-15T00:44:00.391Z,59.23
2024-01-15T00:46:30.922Z,59.19
2024-01-15T00:49:01.558Z,59.31
2024-01-15T00:51:32.206Z,59.09
2024-01-15T00:54:03.611Z,58.75
2024-01-15T00:56:34.124Z,58.73
2024-01-15T00:59:04.809Z,58.73
2024-01-15T01:01:35.362Z,58.05
2024-01-15T01:04:06.200Z,58.23
2024-01-15T01:06:36.809Z,58.07
2024-01-15T01:09:07.520Z,58.16
2024-01-15T01:11:38.028Z,58.21
2024-01-15T01:14:08.629Z,58.44
2024-01-15T01:16:40.566Z,58.16
2024-01-15T01:19:11.502Z,57.89
2024-01-15T01:21:42.105Z,57.96
2024-01-15T01:24:12.597Z,58.22
2024-01-15T01:26:43.117Z,57.90
2024-01-15T01:29:13.605Z,58.15
2024-01-15T01:31:48.034Z,58.01
2024-01-15T01:34:19.598Z,57.96
2024-01-15T01:36:50.382Z,57.73
2024-01-15T01:39:20.975Z,58.07
2024-01-15T01:41:51.523Z,58.09
2024-01-15T01:44:21.986Z,58.09
2024-01-15T01:46:52.701Z,57.93
2024-01-15T01:49:23.555Z,57.77
2024-01-15T01:51:54.734Z,57.80
2024-01-15T01:54:25.593Z,57.65
2024-01-15T01:56:56.123Z,57.89
2024-01-15T01:59:28.131Z,57.53
2024-01-15T02:01:59.598Z,57.56
2024-01-15T02:04:30.416Z,57.77
2024-01-15T02:07:01.017Z,58.10
2024-01-15T02:09:33.163Z,58.74
2024-01-15T02:12:04.233Z,58.99
2024-01-15T02:14:35.082Z,59.37
2024-01-15T02:17:05.843Z,59.63
2024-01-15T02:19:36.494Z,60.24
2024-01-15T02:22:07.332Z,60.82
2024-01-15T02:24:38.052Z,60.85
2024-01-15T02:27:08.950Z,61.07
2024-01-15T02:29:39.897Z,61.00
2024-01-15T02:32:12.371Z,61.10
2024-01-15T02:34:41.414Z,60.95
2024-01-15T02:37:12.178Z,61.21
2024-01-15T02:39:42.659Z,61.02
2024-01-15T02:42:13.211Z,60.66
2024-01-15T02:44:43.684Z,60.32
2024-01-15T02:47:14.125Z,59.97
2024-01-15T02:49:44.616Z,59.94
2024-01-15T02:52:15.161Z,60.45
2024-01-15T02:54:45.725Z,60.55
2024-01-15T02:57:16.346Z,60.91
2024-01-15T02:59:46.819Z,60.94
2024-01-15T03:02:17.464Z,60.87
2024-01-15T03:04:48.342Z,60.87
2024-01-15T03:07:19.926Z,60.80
2024-01-15T03:09:51.111Z,60.52
2024-01-15T03:12:21.719Z,60.27
2024-01-15T03:14:52.201Z,60.36
2024-01-15T03:17:22.672Z,60.13
2024-01-15T03:19:53.174Z,60.00
2024-01-15T03:22:23.806Z,59.94
2024-01-15T03:24:54.845Z,59.96
2024-01-15T03:27:27.158Z,59.96
2024-01-15T03:29:57.782Z,59.94
2024-01-15T03:32:28.294Z,60.03
2024-01-15T03:34:58.847Z,60.01
2024-01-15T03:37:29.390Z,59.98
2024-01-15T03:39:59.957Z,59.58
2024-01-15T03:42:30.583Z,59.42
2024-01-15T03:45:01.132Z,59.45
2024-01-15T03:47:31.720Z,59.66
2024-01-15T03:50:02.258Z,59.40
2024-01-15T03:52:32.747Z,59.35
2024-01-15T03:55:03.426Z,59.00
2024-01-15T03:57:34.010Z,58.84
2024-01-15T04:00:04.898Z,58.94
2024-01-15T04:02:35.770Z,59.12
2024-01-15T04:05:06.949Z,58.57
2024-01-15T04:07:37.465Z,58.50
2024-01-15T04:10:09.065Z,58.30
2024-01-15T04:12:39.575Z,58.13
2024-01-15T04:15:10.753Z,58.34
2024-01-15T04:17:41.410Z,58.11
2024-01-15T04:20:13.235Z,58.29
2024-01-15T04:22:43.709Z,58.08
2024-01-15T04:25:14.210Z,57.96
2024-01-15T04:27:44.765Z,58.05
2024-01-15T04:30:16.514Z,57.94
2024-01-15T04:32:47.201Z,57.99
2024-01-15T04:35:17.829Z,58.07
2024-01-15T04:37:48.302Z,58.16
2024-01-15T04:40:18.935Z,57.82
2024-01-15T04:42:49.508Z,58.15
2024-01-15T04:45:20.974Z,57.87
2024-01-15T04:47:51.520Z,58.01
2024-01-15T04:50:22.030Z,57.90
2024-01-15T04:52:53.212Z,57.73
2024-01-15T04:55:23.780Z,57.75
2024-01-15T04:57:54.252Z,57.92
2024-01-15T05:00:24.847Z,57.78
2024-01-15T05:02:55.693Z,57.79
2024-01-15T05:05:27.146Z,57.63
2024-01-15T05:07:57.750Z,57.85
2024-01-15T05:10:28.294Z,57.54
2024-01-15T05:12:59.084Z,57.62
2024-01-15T05:15:29.652Z,57.69
2024-01-15T05:18:00.326Z,57.35
2024-01-15T05:20:30.941Z,57.40
2024-01-15T05:23:01.713Z,57.41
2024-01-15T05:25:32.212Z,57.64
2024-01-15T05:28:02.746Z,57.89
2024-01-15T05:30:33.306Z,58.52
2024-01-15T05:33:04.489Z,59.26
2024-01-15T05:35:35.078Z,60.01
2024-01-15T05:38:05.784Z,60.20
2024-01-15T05:40:36.726Z,60.68
2024-01-15T05:43:07.466Z,61.24
2024-01-15T05:45:40.760Z,61.57
2024-01-15T05:48:11.397Z,62.13
2024-01-15T05:50:42.041Z,62.33
2024-01-15T05:53:12.529Z,62.40
2024-01-15T05:55:43.094Z,62.49
2024-01-15T05:58:13.597Z,62.17
2024-01-15T06:00:44.136Z,62.26
2024-01-15T06:03:14.664Z,62.22
2024-01-15T06:05:45.470Z,62.34
2024-01-15T06:08:16.860Z,62.19
2024-01-15T06:10:47.318Z,62.40
2024-01-15T06:13:17.765Z,62.32
2024-01-15T06:15:48.434Z,62.46
2024-01-15T06:18:19.325Z,62.56
2024-01-15T06:20:49.990Z,62.21
2024-01-15T06:23:21.563Z,62.29
2024-01-15T06:25:52.241Z,62.60
2024-01-15T06:28:22.721Z,62.55
2024-01-15T06:30:53.427Z,62.46
2024-01-15T06:33:24.002Z,62.45
2024-01-15T06:35:54.528Z,62.83
2024-01-15T06:38:26.296Z,62.64
2024-01-15T06:40:56.759Z,62.36
2024-01-15T06:43:27.279Z,62.52
2024-01-15T06:45:57.946Z,62.37
2024-01-15T06:48:28.704Z,62.12
2024-01-15T06:50:59.536Z,62.07
2024-01-15T06:53:30.141Z,61.92
2024-01-15T06:56:01.037Z,61.68
2024-01-15T06:58:33.017Z,62.01
2024-01-15T07:01:03.648Z,61.66
2024-01-15T07:03:34.642Z,61.53
2024-01-15T07:06:05.761Z,61.07
2024-01-15T07:08:36.273Z,60.84
2024-01-15T07:11:09.472Z,60.66
2024-01-15T07:13:41.662Z,60.29
2024-01-15T07:16:12.155Z,60.07
2024-01-15T07:18:42.697Z,59.83
2024-01-15T07:21:13.783Z,59.33
2024-01-15T07:23:44.649Z,59.32
2024-01-15T07:26:15.153Z,58.92
2024-01-15T07:28:45.613Z,58.53
2024-01-15T07:31:17.364Z,58.90
2024-01-15T07:33:48.539Z,58.38
2024-01-15T07:36:19.077Z,58.42
2024-01-15T07:38:50.006Z,58.22
2024-01-15T07:41:20.478Z,58.09
2024-01-15T07:43:51.252Z,58.03
2024-01-15T07:46:21.806Z,57.81
2024-01-15T07:48:57.462Z,57.72
2024-01-15T07:51:28.356Z,57.59
2024-01-15T07:53:58.917Z,57.50
2024-01-15T07:56:29.517Z,57.26
2024-01-15T07:59:00.043Z,56.93
2024-01-15T08:01:30.821Z,56.72
2024-01-15T08:04:01.511Z,56.26
2024-01-15T08:06:33.198Z,56.21
2024-01-15T08:09:05.191Z,55.52
2024-01-15T08:11:35.728Z,55.45
2024-01-15T08:14:06.336Z,55.30
2024-01-15T08:16:36.842Z,54.70
2024-01-15T08:19:07.677Z,54.76
2024-01-15T08:21:38.326Z,54.36
2024-01-15T08:24:09.272Z,54.17
2024-01-15T08:26:39.791Z,54.30
2024-01-15T08:29:10.350Z,54.27
2024-01-15T08:31:41.249Z,53.98
2024-01-15T08:34:12.071Z,53.91
2024-01-15T08:36:42.971Z,54.01
2024-01-15T08:39:13.725Z,53.66
2024-01-15T08:41:44.419Z,53.64
2024-01-15T08:44:14.986Z,53.47
2024-01-15T08:46:45.461Z,53.28
2024-01-15T08:49:16.038Z,53.16
2024-01-15T08:51:46.745Z,53.20
2024-01-15T08:54:19.383Z,53.08
2024-01-15T08:56:49.895Z,52.77
2024-01-15T08:59:25.836Z,52.94
2024-01-15T09:01:58.211Z,53.05
2024-01-15T09:04:28.870Z,53.11
2024-01-15T09:06:59.472Z,52.50
2024-01-15T09:09:29.998Z,52.55
2024-01-15T09:12:00.533Z,52.97
2024-01-15T09:14:36.686Z,52.36
2024-01-15T09:17:09.320Z,52.35
2024-01-15T09:19:40.932Z,52.23
2024-01-15T09:22:11.513Z,52.15
2024-01-15T09:24:44.080Z,52.35
2024-01-15T09:27:14.800Z,51.82
2024-01-15T09:29:47.202Z,51.95
2024-01-15T09:32:17.118Z,52.27
2024-01-15T09:34:48.389Z,52.15
2024-01-15T09:37:31.296Z,52.20
2024-01-15T09:40:10.886Z,52.59
2024-01-15T09:42:41.897Z,52.47
2024-01-15T09:45:13.561Z,52.22
2024-01-15T09:47:46.070Z,52.46
2024-01-15T09:50:18.310Z,52.25
2024-01-15T09:52:50.248Z,51.81
2024-01-15T09:55:21.212Z,51.86
2024-01-15T09:57:52.838Z,51.95
2024-01-15T10:00:24.586Z,52.02
2024-01-15T10:02:55.144Z,52.20
2024-01-15T10:05:25.746Z,51.90
2024-01-15T10:07:58.746Z,52.26
2024-01-15T10:10:29.229Z,51.79
2024-01-15T10:13:00.565Z,51.80
2024-01-15T10:15:31.241Z,51.61
2024-01-15T10:18:01.854Z,51.32
2024-01-15T10:20:33.919Z,51.95
2024-01-15T10:23:05.440Z,51.94
2024-01-15T10:25:37.505Z,51.84
2024-01-15T10:28:09.208Z,51.73
2024-01-15T10:30:39.848Z,51.59
2024-01-15T10:33:10.677Z,51.49
2024-01-15T10:35:43.092Z,51.29
2024-01-15T10:38:13.786Z,51.54
2024-01-15T10:40:44.296Z,51.64
2024-01-15T10:43:14.769Z,51.15
2024-01-15T10:45:45.473Z,51.09
2024-01-15T10:48:16.511Z,51.43
2024-01-15T10:50:48.049Z,51.40
2024-01-15T10:53:20.375Z,50.88
2024-01-15T10:55:52.664Z,51.10
2024-01-15T10:58:25.156Z,51.00
2024-01-15T11:00:54.447Z,50.70
2024-01-15T11:03:25.573Z,50.87
2024-01-15T11:05:57.266Z,50.99
2024-01-15T11:08:29.090Z,51.32
2024-01-15T11:11:00.109Z,50.90
2024-01-15T11:13:44.981Z,50.89
2024-01-15T11:16:19.533Z,50.81
2024-01-15T11:19:09.629Z,50.27
2024-01-15T11:21:45.975Z,50.08
2024-01-15T11:24:37.858Z,49.78
2024-01-15T11:27:09.601Z,49.75
2024-01-15T11:29:40.666Z,49.81
2024-01-15T11:32:11.954Z,50.20
2024-01-15T11:35:04.225Z,49.78
2024-01-15T11:38:02.600Z,49.60
2024-01-15T11:40:44.156Z,50.19
2024-01-15T11:43:18.076Z,49.47
2024-01-15T11:45:52.833Z,49.61
2024-01-15T11:48:25.347Z,49.30
2024-01-15T11:50:57.669Z,49.61
2024-01-15T11:53:38.811Z,49.26
2024-01-15T11:56:18.819Z,49.84
2024-01-15T11:58:49.334Z,49.38
2024-01-15T12:01:22.024Z,49.36
2024-01-15T12:03:52.743Z,49.41
2024-01-15T12:06:24.606Z,49.10
2024-01-15T12:09:09.468Z,49.27
2024-01-15T12:11:45.210Z,49.68
2024-01-15T12:14:17.419Z,49.49
2024-01-15T12:16:47.943Z,49.74
2024-01-15T12:19:19.089Z,49.60
2024-01-15T12:21:50.078Z,49.92
2024-01-15T12:24:21.920Z,49.98
2024-01-15T12:26:52.422Z,49.89
2024-01-15T12:29:23.049Z,49.92
2024-01-15T12:31:56.677Z,49.86
2024-01-15T12:34:31.012Z,49.56
2024-01-15T12:37:02.560Z,49.73
2024-01-15T12:39:33.758Z,49.74
2024-01-15T12:42:04.764Z,49.48
2024-01-15T12:44:36.922Z,49.73
2024-01-15T12:47:08.779Z,49.54
2024-01-15T12:49:41.633Z,49.57
2024-01-15T12:52:13.122Z,49.65
2024-01-15T12:54:43.761Z,50.14
2024-01-15T12:57:14.446Z,49.86
2024-01-15T12:59:44.953Z,49.68
2024-01-15T13:02:16.469Z,50.19
2024-01-15T13:04:47.146Z,49.70
2024-01-15T13:07:18.220Z,49.50
2024-01-15T13:09:48.959Z,49.74
2024-01-15T13:12:19.656Z,49.51
2024-01-15T13:14:50.167Z,49.84
2024-01-15T13:17:22.190Z,49.96
2024-01-15T13:19:53.414Z,49.66
2024-01-15T13:22:25.701Z,50.09
2024-01-15T13:24:55.112Z,49.81
2024-01-15T13:27:26.004Z,50.23
2024-01-15T13:29:56.497Z,50.22
2024-01-15T13:32:28.382Z,50.15
2024-01-15T13:34:59.718Z,49.97
2024-01-15T13:37:30.262Z,50.22
2024-01-15T13:40:00.813Z,50.00
2024-01-15T13:42:31.539Z,49.90
2024-01-15T13:45:02.121Z,49.98
2024-01-15T13:47:32.686Z,50.09
2024-01-15T13:50:03.255Z,50.37
2024-01-15T13:52:33.818Z,50.04
2024-01-15T13:55:04.487Z,49.93
2024-01-15T13:57:35.020Z,49.72
2024-01-15T14:00:10.800Z,49.64
2024-01-15T14:02:41.364Z,49.86
2024-01-15T14:05:14.146Z,49.88
2024-01-15T14:07:45.215Z,49.90
2024-01-15T14:10:15.753Z,49.80
2024-01-15T14:12:46.814Z,49.94
2024-01-15T14:15:17.553Z,49.56
2024-01-15T14:17:48.160Z,49.60
2024-01-15T14:20:22.464Z,49.55
2024-01-15T14:22:53.437Z,49.48
2024-01-15T14:25:25.380Z,49.55
2024-01-15T14:27:56.102Z,49.50
2024-01-15T14:30:26.669Z,49.38
2024-01-15T14:32:57.289Z,49.56
2024-01-15T14:35:27.910Z,49.44
2024-01-15T14:37:59.560Z,49.27
2024-01-15T14:40:30.782Z,49.11
2024-01-15T14:43:01.671Z,49.44
2024-01-15T14:45:32.242Z,49.89
2024-01-15T14:48:02.866Z,49.54
2024-01-15T14:50:33.395Z,49.69
2024-01-15T14:53:03.871Z,49.55
2024-01-15T14:55:34.656Z,49.46
2024-01-15T14:58:05.710Z,49.95
2024-01-15T15:00:36.356Z,50.05
2024-01-15T15:03:07.242Z,50.00
2024-01-15T15:05:37.735Z,50.13
2024-01-15T15:08:10.044Z,50.41
2024-01-15T15:10:41.505Z,50.38
2024-01-15T15:13:12.214Z,50.28
2024-01-15T15:15:42.766Z,50.57
2024-01-15T15:18:13.455Z,50.81
2024-01-15T15:20:44.199Z,50.73
2024-01-15T15:23:14.707Z,50.73
2024-01-15T15:25:45.227Z,50.68
2024-01-15T15:28:17.411Z,50.93
2024-01-15T15:30:48.085Z,51.10
2024-01-15T15:33:19.675Z,51.14
2024-01-15T15:35:52.412Z,50.58
2024-01-15T15:38:24.333Z,51.21
2024-01-15T15:40:55.056Z,51.43
2024-01-15T15:43:25.559Z,51.27
2024-01-15T15:45:56.291Z,51.58
2024-01-15T15:48:27.177Z,51.33
2024-01-15T15:51:00.894Z,51.32
2024-01-15T15:53:31.713Z,51.65
2024-01-15T15:56:02.442Z,51.93
2024-01-15T15:58:33.628Z,51.86
2024-01-15T16:01:04.462Z,51.85
2024-01-15T16:03:35.327Z,52.01
2024-01-15T16:06:06.224Z,52.14
2024-01-15T16:08:36.723Z,52.43
2024-01-15T16:11:08.501Z,52.23
2024-01-15T16:13:38.981Z,52.47
2024-01-15T16:23:09.941Z,52.77
2024-01-15T16:23:23.169Z,53.04
2024-01-15T16:23:38.444Z,53.12
2024-01-15T16:24:50.410Z,53.25
2024-01-15T16:27:23.082Z,53.51
2024-01-15T16:29:53.638Z,53.63
2024-01-15T16:32:24.221Z,53.81
2024-01-15T16:34:56.055Z,54.09
2024-01-15T16:37:26.658Z,54.22
2024-01-15T16:39:57.193Z,54.28
2024-01-15T16:42:27.811Z,54.49
2024-01-15T16:44:58.316Z,54.82
2024-01-15T16:47:28.846Z,54.85
2024-01-15T16:49:59.440Z,55.20
2024-01-15T16:52:29.988Z,55.35
2024-01-15T16:55:00.574Z,55.34
2024-01-15T16:57:31.065Z,55.52
2024-01-15T17:00:01.599Z,55.84
2024-01-15T17:02:32.180Z,56.32
2024-01-15T17:05:02.840Z,56.47
2024-01-15T17:07:33.781Z,56.28
2024-01-15T17:10:04.584Z,56.31
2024-01-15T17:12:35.170Z,56.08
2024-01-15T17:15:06.793Z,56.02
2024-01-15T17:17:37.429Z,56.05
2024-01-15T17:20:10.986Z,56.20
2024-01-15T17:22:41.662Z,55.85
2024-01-15T17:25:12.363Z,56.16
2024-01-15T17:27:43.504Z,56.15
2024-01-15T17:30:14.591Z,56.16
2024-01-15T17:32:45.342Z,56.24
2024-01-15T17:35:16.101Z,56.33
2024-01-15T17:37:46.738Z,56.14
2024-01-15T17:40:17.389Z,56.31
2024-01-15T17:42:48.614Z,56.04
2024-01-15T17:45:19.807Z,56.28
2024-01-15T17:47:51.747Z,56.16
2024-01-15T17:50:22.363Z,56.01
2024-01-15T17:52:52.928Z,55.62
2024-01-15T17:55:24.116Z,55.42
2024-01-15T17:57:54.698Z,55.13
2024-01-15T18:00:26.064Z,55.06
2024-01-15T18:02:56.904Z,55.00
2024-01-15T18:05:27.655Z,54.89
2024-01-15T18:07:58.261Z,55.05
2024-01-15T18:10:28.849Z,55.20
2024-01-15T18:12:59.641Z,54.98
2024-01-15T18:15:30.215Z,54.99
2024-01-15T18:18:00.876Z,55.11
2024-01-15T18:20:34.092Z,55.43
2024-01-15T18:23:04.818Z,55.59
2024-01-15T18:25:35.361Z,55.47
2024-01-15T18:28:06.326Z,55.68
2024-01-15T18:30:37.389Z,55.67
2024-01-15T18:33:08.685Z,55.78
2024-01-15T18:35:39.421Z,56.07
2024-01-15T18:38:09.988Z,55.95
2024-01-15T18:40:40.573Z,56.05
2024-01-15T18:43:11.068Z,56.17
2024-01-15T18:45:42.008Z,56.21
2024-01-15T18:48:12.594Z,56.15
2024-01-15T18:50:43.174Z,56.17
2024-01-15T18:53:13.891Z,56.12
2024-01-15T18:55:44.570Z,56.27
2024-01-15T18:58:15.598Z,56.17
2024-01-15T19:00:46.766Z,56.46
2024-01-15T19:03:17.416Z,56.49
2024-01-15T19:05:48.301Z,56.58
2024-01-15T19:08:19.077Z,56.45
2024-01-15T19:10:49.702Z,56.50
2024-01-15T19:13:20.685Z,56.64
2024-01-15T19:15:51.303Z,56.85
2024-01-15T19:18:22.002Z,56.45
2024-01-15T19:20:52.891Z,56.45
2024-01-15T19:23:23.443Z,56.57
2024-01-15T19:25:54.429Z,56.44
2024-01-15T19:28:25.065Z,56.78
2024-01-15T19:30:55.648Z,56.51
2024-01-15T19:33:26.227Z,56.27
2024-01-15T19:35:56.752Z,56.45
2024-01-15T19:38:27.376Z,56.53
2024-01-15T19:40:58.398Z,56.67
2024-01-15T19:43:28.965Z,56.63
2024-01-15T19:45:59.450Z,56.51
2024-01-15T19:48:29.976Z,56.78
2024-01-15T19:51:00.542Z,56.65
2024-01-15T19:53:31.584Z,56.87
2024-01-15T19:56:02.431Z,57.13
2024-01-15T19:58:36.883Z,57.37
2024-01-15T20:01:08.343Z,57.68
2024-01-15T20:03:38.998Z,57.93
2024-01-15T20:06:12.985Z,58.09
2024-01-15T20:08:45.725Z,58.63
2024-01-15T20:11:17.882Z,59.29
2024-01-15T20:13:48.525Z,59.45
2024-01-15T20:16:20.220Z,59.79
2024-01-15T20:18:50.842Z,59.83
2024-01-15T20:21:21.461Z,59.77
2024-01-15T20:23:58.567Z,60.09
2024-01-15T20:26:32.320Z,60.15
2024-01-15T20:29:02.975Z,60.04
2024-01-15T20:31:33.959Z,60.15
2024-01-15T20:34:04.605Z,59.76
2024-01-15T20:36:35.127Z,59.91
2024-01-15T20:39:05.851Z,59.81
2024-01-15T20:41:36.461Z,59.89
2024-01-15T20:44:07.500Z,59.86
2024-01-15T20:46:38.001Z,59.84
2024-01-15T20:49:08.578Z,59.94
2024-01-15T20:51:39.084Z,60.13
2024-01-15T20:54:09.639Z,60.08
2024-01-15T20:56:40.265Z,60.08
2024-01-15T20:59:10.938Z,60.10
2024-01-15T21:01:41.418Z,60.16
2024-01-15T21:04:13.273Z,59.90
2024-01-15T21:06:43.975Z,60.21
2024-01-15T21:09:14.470Z,60.27
2024-01-15T21:11:45.008Z,60.32
2024-01-15T21:14:19.521Z,60.30
2024-01-15T21:16:50.324Z,60.06
2024-01-15T21:19:21.113Z,60.18
2024-01-15T21:21:51.650Z,60.08
2024-01-15T21:24:27.355Z,60.27
2024-01-15T21:26:59.310Z,60.27
2024-01-15T21:29:29.913Z,60.22
2024-01-15T21:32:00.860Z,60.02
2024-01-15T21:34:31.422Z,59.95
2024-01-15T21:37:04.329Z,60.05
2024-01-15T21:39:36.337Z,60.18
2024-01-15T21:42:06.985Z,59.95
2024-01-15T21:44:37.494Z,60.02
2024-01-15T21:47:08.393Z,60.09
2024-01-15T21:49:39.046Z,59.83
2024-01-15T21:52:10.160Z,59.87
2024-01-15T21:54:40.630Z,59.92
2024-01-15T21:57:11.121Z,59.81
2024-01-15T21:59:41.700Z,59.86
2024-01-15T22:02:12.206Z,59.94
2024-01-15T22:04:42.691Z,59.99
2024-01-15T22:07:13.169Z,60.07
2024-01-15T22:09:43.630Z,59.84
2024-01-15T22:12:14.098Z,60.05
2024-01-15T22:14:44.638Z,60.09
2024-01-15T22:17:15.200Z,60.04
2024-01-15T22:19:45.707Z,60.01
2024-01-15T22:22:16.210Z,60.11
2024-01-15T22:24:46.682Z,60.06
2024-01-15T22:27:17.397Z,60.08
2024-01-15T22:29:51.894Z,60.35
2024-01-15T22:32:23.671Z,60.17
2024-01-15T22:34:54.415Z,60.15
2024-01-15T22:37:24.893Z,60.12
2024-01-15T22:39:55.446Z,60.27
2024-01-15T22:42:26.641Z,60.37
2024-01-15T22:44:58.062Z,60.21
2024-01-15T22:47:28.879Z,60.14
2024-01-15T22:49:59.620Z,60.22
2024-01-15T22:52:30.181Z,60.12
2024-01-15T22:55:00.696Z,60.06
2024-01-15T22:57:31.165Z,60.20
2024-01-15T23:00:01.906Z,60.33
2024-01-15T23:02:32.455Z,60.50
2024-01-15T23:05:03.259Z,60.64
2024-01-15T23:07:33.864Z,60.84
2024-01-15T23:10:04.890Z,60.87
2024-01-15T23:12:35.340Z,60.61
2024-01-15T23:15:06.894Z,60.51
2024-01-15T23:17:37.542Z,60.53
2024-01-15T23:20:12.174Z,61.19
2024-01-15T23:22:42.844Z,61.85
2024-01-15T23:25:13.744Z,62.59
2024-01-15T23:27:46.644Z,63.21
2024-01-15T23:30:17.896Z,63.71
2024-01-15T23:32:49.002Z,63.62
2024-01-15T23:35:19.849Z,64.03
2024-01-15T23:37:50.433Z,64.22
2024-01-15T23:40:21.067Z,64.50
2024-01-15T23:42:51.705Z,64.50
2024-01-15T23:45:22.264Z,64.59
2024-01-15T23:47:52.869Z,64.72
2024-01-15T23:50:23.518Z,64.84
2024-01-15T23:52:54.029Z,64.64
2024-01-15T23:55:24.630Z,65.00
2024-01-15T23:57:55.103Z,65.10
